Time;durP1;ratioP1;P1;durP2;ratioP2;P2;SDS_P1;SDS_P2;PMS_P1;PMS_P2;Temp;Humidity;BMP_temperature;BMP_pressure;BME280_temperature;BME280_humidity;BME280_pressure;Samples;Min_cycle;Max_cycle;Signal;HPM_P1;HPM_P2
2021/03/16 00:00:42;;;;;;;21.17;3.83;;;8.80;99.90;;;;;;5057376;28;20203;-74
2021/03/16 00:03:08;;;;;;;38.03;4.68;;;8.70;99.90;;;;;;5057197;28;20258;-75
2021/03/16 00:05:33;;;;;;;27.07;3.67;;;8.70;99.90;;;;;;5057326;28;20244;-75
2021/03/16 00:07:59;;;;;;;28.17;3.60;;;8.70;99.90;;;;;;5056424;28;20500;-75
2021/03/16 00:10:25;;;;;;;27.90;3.97;;;8.70;99.90;;;;;;5022719;28;20183;-75
2021/03/16 00:12:51;;;;;;;35.15;5.63;;;8.80;99.90;;;;;;5056799;28;20500;-75
2021/03/16 00:15:16;;;;;;;39.63;4.55;;;8.80;99.90;;;;;;5057096;28;20171;-75
2021/03/16 00:17:42;;;;;;;31.05;4.93;;;8.90;99.90;;;;;;5038800;28;20207;-75
2021/03/16 00:20:09;;;;;;;34.00;4.80;;;8.90;99.90;;;;;;5039060;28;20184;-75
2021/03/16 00:22:35;;;;;;;36.47;4.40;;;8.80;99.90;;;;;;5056934;28;20611;-75
2021/03/16 00:25:00;;;;;;;32.47;5.28;;;8.80;99.90;;;;;;5039046;28;20613;-74
2021/03/16 00:27:26;;;;;;;20.15;4.57;;;8.70;99.90;;;;;;5056207;28;20257;-75
2021/03/16 00:29:52;;;;;;;25.95;3.72;;;8.70;99.90;;;;;;5038620;28;20163;-75
2021/03/16 00:32:17;;;;;;;34.83;3.97;;;8.70;99.90;;;;;;5022464;28;20266;-74
2021/03/16 00:34:43;;;;;;;14.65;3.22;;;8.80;99.90;;;;;;5056695;28;20213;-75
2021/03/16 00:37:09;;;;;;;24.92;3.88;;;8.90;99.90;;;;;;5056894;28;20167;-75
2021/03/16 00:39:35;;;;;;;24.13;4.00;;;8.90;99.90;;;;;;5038432;28;20172;-75
2021/03/16 00:42:01;;;;;;;27.92;4.50;;;8.90;99.90;;;;;;5056461;28;20218;-75
2021/03/16 00:44:27;;;;;;;35.13;4.50;;;8.70;99.90;;;;;;5054781;28;20175;-75
2021/03/16 00:46:52;;;;;;;34.47;5.13;;;8.60;99.90;;;;;;5056480;28;20175;-74
2021/03/16 00:49:18;;;;;;;28.77;4.10;;;8.40;99.90;;;;;;5053941;28;20542;-75
2021/03/16 00:51:44;;;;;;;22.80;4.30;;;8.40;99.90;;;;;;5051388;28;20176;-75
2021/03/16 00:54:09;;;;;;;31.73;3.73;;;8.40;99.90;;;;;;5026878;28;20186;-75
2021/03/16 00:56:37;;;;;;;28.37;4.33;;;8.40;99.90;;;;;;5037482;28;20496;-75
2021/03/16 00:59:03;;;;;;;39.10;4.93;;;8.50;99.90;;;;;;5055303;28;20195;-74
2021/03/16 01:01:29;;;;;;;26.10;4.40;;;8.50;99.90;;;;;;5056004;28;20182;-75
2021/03/16 01:03:54;;;;;;;27.42;4.45;;;8.60;99.90;;;;;;5055978;28;20564;-75
2021/03/16 01:06:20;;;;;;;26.90;3.80;;;8.60;99.90;;;;;;5055438;28;20639;-76
2021/03/16 01:08:46;;;;;;;26.13;3.70;;;8.70;99.90;;;;;;5018952;28;20309;-75
2021/03/16 01:11:12;;;;;;;28.10;3.73;;;8.70;99.90;;;;;;5058212;28;20205;-75
2021/03/16 01:13:37;;;;;;;44.45;5.03;;;8.70;99.90;;;;;;5043432;28;20185;-74
2021/03/16 01:16:03;;;;;;;27.30;4.53;;;8.60;99.90;;;;;;5061625;28;20167;-74
2021/03/16 01:18:29;;;;;;;26.10;3.87;;;8.60;99.90;;;;;;5060221;28;20194;-75
2021/03/16 01:20:55;;;;;;;32.83;4.00;;;8.60;99.90;;;;;;5066957;28;20218;-74
2021/03/16 01:23:20;;;;;;;18.85;4.03;;;8.50;99.90;;;;;;5055147;28;20612;-74
2021/03/16 01:25:46;;;;;;;19.90;3.65;;;8.50;99.90;;;;;;5055393;28;20171;-75
2021/03/16 01:28:12;;;;;;;20.70;3.27;;;8.50;99.90;;;;;;5055141;28;20187;-74
2021/03/16 01:30:38;;;;;;;25.40;3.42;;;8.50;99.90;;;;;;5055371;28;20612;-75
2021/03/16 01:33:03;;;;;;;18.80;3.15;;;8.50;99.90;;;;;;5037194;28;20511;-74
2021/03/16 01:35:30;;;;;;;17.63;3.27;;;8.50;99.90;;;;;;5055582;28;20603;-76
2021/03/16 01:37:56;;;;;;;17.90;3.10;;;8.50;99.90;;;;;;5037388;28;20686;-76
2021/03/16 01:40:37;;;;;;;17.07;3.63;;;8.50;99.90;;;;;;5055133;28;20182;-76
2021/03/16 01:43:13;;;;;;;38.07;3.97;;;8.60;99.90;;;;;;5055274;28;20286;-76
2021/03/16 01:45:40;;;;;;;26.63;3.85;;;8.50;99.90;;;;;;5055358;28;20167;-76
2021/03/16 01:48:07;;;;;;;28.50;3.20;;;8.40;99.90;;;;;;5037766;28;20183;-76
2021/03/16 01:50:33;;;;;;;32.17;3.17;;;8.40;99.90;;;;;;5037044;28;20164;-76
2021/03/16 01:53:02;;;;;;;21.33;4.20;;;8.50;99.90;;;;;;5054529;28;20630;-76
2021/03/16 01:55:29;;;;;;;22.38;3.45;;;8.40;99.90;;;;;;5055387;28;20163;-76
2021/03/16 01:57:56;;;;;;;20.13;3.23;;;8.30;99.90;;;;;;5055036;28;20290;-76
2021/03/16 02:00:23;;;;;;;29.87;3.97;;;8.20;99.90;;;;;;5037064;28;20187;-76
2021/03/16 02:02:49;;;;;;;25.77;3.53;;;8.20;99.90;;;;;;5036818;28;20212;-77
2021/03/16 02:05:15;;;;;;;30.50;3.80;;;8.30;99.90;;;;;;5054984;28;20175;-77
2021/03/16 02:07:57;;;;;;;22.27;3.78;;;8.30;99.90;;;;;;5054823;28;20243;-76
2021/03/16 02:10:32;;;;;;;18.43;3.30;;;8.30;99.90;;;;;;5037262;28;20568;-77
2021/03/16 02:13:05;;;;;;;20.42;2.88;;;8.30;99.90;;;;;;5054250;28;20170;-76
2021/03/16 02:15:35;;;;;;;23.57;3.53;;;8.40;99.90;;;;;;5054512;28;20676;-76
2021/03/16 02:18:15;;;;;;;27.67;3.90;;;8.40;99.90;;;;;;5054326;28;20203;-76
2021/03/16 02:20:55;;;;;;;21.13;3.53;;;8.40;99.90;;;;;;5036284;28;20514;-76
2021/03/16 02:23:32;;;;;;;17.33;3.17;;;8.50;99.90;;;;;;5054087;28;20166;-76
2021/03/16 02:26:17;;;;;;;26.53;4.00;;;8.50;99.90;;;;;;5036679;28;20655;-76
2021/03/16 02:29:13;;;;;;;25.50;3.90;;;8.50;99.90;;;;;;5054817;28;20163;-76
2021/03/16 02:31:43;;;;;;;25.48;4.30;;;8.50;99.90;;;;;;5054204;28;20704;-76
2021/03/16 02:34:11;;;;;;;29.53;3.80;;;8.50;99.90;;;;;;5036313;28;20669;-77
2021/03/16 02:36:39;;;;;;;24.30;3.20;;;8.40;99.90;;;;;;5036555;28;20177;-76
2021/03/16 02:39:06;;;;;;;25.98;3.95;;;8.30;99.90;;;;;;5054018;28;20675;-76
2021/03/16 02:41:33;;;;;;;23.58;4.07;;;8.40;99.90;;;;;;5053724;28;20267;-76
2021/03/16 02:43:59;;;;;;;33.60;3.83;;;8.50;99.90;;;;;;5053919;28;20645;-76
2021/03/16 02:46:27;;;;;;;35.13;4.05;;;8.50;99.90;;;;;;5054110;28;20194;-76
2021/03/16 02:48:55;;;;;;;27.13;3.80;;;8.50;99.90;;;;;;5054176;28;20171;-76
2021/03/16 02:51:22;;;;;;;22.48;3.47;;;8.50;99.90;;;;;;5054017;28;20167;-77
2021/03/16 02:53:49;;;;;;;22.20;3.47;;;8.50;99.90;;;;;;5053212;28;20171;-76
2021/03/16 02:56:17;;;;;;;27.23;3.57;;;8.60;99.90;;;;;;5035632;28;20167;-76
2021/03/16 02:58:45;;;;;;;28.37;3.90;;;8.40;99.90;;;;;;5036033;28;20230;-76
2021/03/16 03:01:11;;;;;;;21.10;3.87;;;8.40;99.90;;;;;;5053978;28;20172;-76
2021/03/16 03:03:39;;;;;;;29.10;4.03;;;8.50;99.90;;;;;;5053476;28;20642;-76
2021/03/16 03:06:07;;;;;;;31.07;3.90;;;8.50;99.90;;;;;;5053785;28;20163;-76
2021/03/16 03:08:34;;;;;;;27.53;4.10;;;8.50;99.90;;;;;;5035934;28;20176;-76
2021/03/16 03:10:59;;;;;;;29.97;3.57;;;8.60;99.90;;;;;;5035745;28;20175;-76
2021/03/16 03:13:25;;;;;;;31.63;3.93;;;8.70;99.90;;;;;;5019209;28;20167;-77
2021/03/16 03:15:52;;;;;;;23.97;3.70;;;8.70;99.90;;;;;;5035802;28;20163;-76
2021/03/16 03:18:19;;;;;;;30.17;3.95;;;8.70;99.90;;;;;;5035650;28;20226;-76
2021/03/16 03:20:45;;;;;;;19.87;3.80;;;8.70;99.90;;;;;;5035530;28;20221;-75
2021/03/16 03:23:27;;;;;;;18.10;3.15;;;8.70;99.90;;;;;;5053036;28;20164;-75
2021/03/16 03:25:56;;;;;;;32.85;4.00;;;8.70;99.90;;;;;;5053326;28;20168;-75
2021/03/16 03:28:25;;;;;;;24.15;4.38;;;8.70;99.90;;;;;;5035470;28;20171;-75
2021/03/16 03:30:51;;;;;;;19.20;2.83;;;8.60;99.90;;;;;;5052832;28;20174;-75
2021/03/16 03:33:19;;;;;;;23.33;3.17;;;8.60;99.90;;;;;;5035050;28;20198;-75
2021/03/16 03:35:47;;;;;;;12.63;3.13;;;8.70;99.90;;;;;;5035675;28;20233;-75
2021/03/16 03:38:14;;;;;;;13.63;2.83;;;8.80;99.90;;;;;;5019000;28;20206;-75
2021/03/16 03:40:41;;;;;;;18.42;3.67;;;8.80;99.90;;;;;;5053342;28;20160;-75
2021/03/16 03:43:10;;;;;;;23.63;3.05;;;8.70;99.90;;;;;;5052587;28;20164;-75
2021/03/16 03:45:38;;;;;;;27.90;4.63;;;8.70;99.90;;;;;;5053146;28;20163;-75
2021/03/16 03:48:07;;;;;;;24.48;3.10;;;8.70;99.90;;;;;;5053293;28;20258;-75
2021/03/16 03:50:34;;;;;;;24.75;3.03;;;8.70;99.90;;;;;;5035166;28;20181;-75
2021/03/16 03:53:02;;;;;;;18.73;2.90;;;8.70;99.90;;;;;;5052597;28;20170;-76
2021/03/16 03:55:29;;;;;;;12.48;2.88;;;8.60;99.90;;;;;;5053324;28;20170;-75
2021/03/16 03:57:55;;;;;;;15.20;2.80;;;8.60;99.90;;;;;;5035019;28;20207;-75
2021/03/16 04:00:22;;;;;;;24.15;2.97;;;8.60;99.90;;;;;;5053043;28;20217;-75
2021/03/16 04:02:49;;;;;;;19.88;3.28;;;8.70;99.90;;;;;;5035107;28;20221;-76
2021/03/16 04:05:18;;;;;;;14.68;2.45;;;8.70;99.90;;;;;;5035036;28;20258;-76
2021/03/16 04:07:44;;;;;;;22.98;2.80;;;8.80;99.90;;;;;;5053046;28;20170;-74
2021/03/16 04:10:12;;;;;;;24.90;3.80;;;8.80;99.90;;;;;;5035418;28;20217;-75
2021/03/16 04:12:39;;;;;;;11.47;2.30;;;8.80;99.90;;;;;;5034827;28;20211;-77
2021/03/16 04:15:09;;;;;;;14.73;2.43;;;8.80;99.90;;;;;;5034822;28;20167;-76
2021/03/16 04:17:35;;;;;;;13.15;2.63;;;8.80;99.90;;;;;;5034652;28;20156;-75
2021/03/16 04:20:02;;;;;;;16.02;2.97;;;8.70;99.90;;;;;;5052946;28;20552;-75
2021/03/16 04:22:28;;;;;;;18.70;2.97;;;8.70;99.90;;;;;;5034894;28;20225;-75
2021/03/16 04:24:56;;;;;;;14.75;2.80;;;8.70;99.90;;;;;;5052366;28;20176;-76
2021/03/16 04:27:23;;;;;;;13.27;2.33;;;8.60;99.90;;;;;;5052790;28;20164;-75
2021/03/16 04:29:48;;;;;;;16.48;2.63;;;8.70;99.90;;;;;;5052750;28;20171;-75
2021/03/16 04:32:14;;;;;;;16.90;2.53;;;8.70;99.90;;;;;;5052127;28;20274;-74
2021/03/16 04:34:39;;;;;;;16.87;3.13;;;8.50;99.90;;;;;;5033992;28;20220;-75
2021/03/16 04:37:05;;;;;;;20.87;2.93;;;8.50;99.90;;;;;;5052733;28;20570;-75
2021/03/16 04:39:31;;;;;;;23.33;3.33;;;8.50;99.90;;;;;;5034964;28;20300;-75
2021/03/16 04:41:56;;;;;;;26.97;4.07;;;8.40;99.90;;;;;;5052243;28;20619;-75
2021/03/16 04:44:22;;;;;;;11.90;2.60;;;8.30;99.90;;;;;;5037632;28;20502;-75
2021/03/16 04:46:48;;;;;;;13.70;3.15;;;8.20;99.90;;;;;;5038286;28;20180;-75
2021/03/16 04:49:14;;;;;;;29.33;3.07;;;8.30;99.90;;;;;;5056382;28;20221;-75
2021/03/16 04:51:40;;;;;;;16.43;3.17;;;8.10;99.90;;;;;;5056313;28;20171;-76
2021/03/16 04:54:06;;;;;;;19.07;3.20;;;8.20;99.90;;;;;;5055938;28;20195;-75
2021/03/16 04:56:32;;;;;;;19.10;2.72;;;8.10;99.90;;;;;;5056105;28;20505;-76
2021/03/16 04:58:58;;;;;;;17.15;3.10;;;8.00;99.90;;;;;;5038079;28;20203;-75
2021/03/16 05:01:23;;;;;;;15.90;3.23;;;7.90;99.90;;;;;;5038009;28;20221;-75
2021/03/16 05:03:49;;;;;;;15.97;3.50;;;8.00;99.90;;;;;;5055716;28;20186;-75
2021/03/16 05:06:14;;;;;;;22.88;3.92;;;8.10;99.90;;;;;;5056052;28;20163;-75
2021/03/16 05:08:40;;;;;;;9.73;3.00;;;8.10;99.90;;;;;;5038077;28;20171;-76
2021/03/16 05:11:06;;;;;;;23.50;3.33;;;8.20;99.90;;;;;;5038321;28;20643;-75
2021/03/16 05:13:31;;;;;;;21.60;3.30;;;8.10;99.90;;;;;;5055544;28;20214;-76
2021/03/16 05:15:57;;;;;;;23.97;3.83;;;8.10;99.90;;;;;;5021730;28;20175;-75
2021/03/16 05:18:23;;;;;;;19.03;4.27;;;8.20;99.90;;;;;;5037669;28;20554;-75
2021/03/16 05:20:49;;;;;;;30.17;4.15;;;8.20;99.90;;;;;;5055794;28;20171;-75
2021/03/16 05:23:14;;;;;;;17.60;3.83;;;8.20;99.90;;;;;;5055271;28;20242;-76
2021/03/16 05:25:40;;;;;;;19.13;3.23;;;8.30;99.90;;;;;;5037757;28;20170;-75
2021/03/16 05:28:06;;;;;;;26.87;3.93;;;8.30;99.90;;;;;;5055614;28;20190;-76
2021/03/16 05:30:31;;;;;;;19.48;3.20;;;8.30;99.90;;;;;;5055508;28;20616;-75
2021/03/16 05:32:59;;;;;;;15.63;3.23;;;8.30;99.90;;;;;;5037328;28;20191;-75
2021/03/16 05:35:26;;;;;;;24.27;3.67;;;8.30;99.90;;;;;;5047459;28;20164;-75
2021/03/16 05:37:51;;;;;;;25.90;4.07;;;8.30;99.90;;;;;;5020940;28;20203;-76
2021/03/16 05:40:18;;;;;;;19.50;3.58;;;8.30;99.90;;;;;;5037891;28;20176;-77
2021/03/16 05:42:46;;;;;;;16.85;3.75;;;8.30;99.90;;;;;;5055371;28;20163;-75
2021/03/16 05:45:12;;;;;;;21.23;4.57;;;8.30;99.90;;;;;;5055095;28;20178;-75
2021/03/16 05:47:40;;;;;;;18.98;3.80;;;8.40;99.90;;;;;;5020900;28;20178;-75
2021/03/16 05:50:07;;;;;;;21.60;3.63;;;8.50;99.90;;;;;;5055150;28;20559;-76
2021/03/16 05:52:34;;;;;;;21.90;3.80;;;8.50;99.90;;;;;;5054721;28;20172;-75
2021/03/16 05:55:00;;;;;;;28.70;4.25;;;8.50;99.90;;;;;;5036662;28;20175;-75
2021/03/16 05:57:27;;;;;;;14.25;3.20;;;8.50;99.90;;;;;;5037159;28;20171;-75
2021/03/16 05:59:52;;;;;;;24.63;3.33;;;8.50;99.90;;;;;;5055182;28;20542;-74
2021/03/16 06:02:18;;;;;;;16.30;3.80;;;8.50;99.90;;;;;;5054893;28;20171;-75
2021/03/16 06:04:45;;;;;;;22.77;3.65;;;8.50;99.90;;;;;;5036297;28;20198;-76
2021/03/16 06:07:14;;;;;;;26.33;4.25;;;8.50;99.90;;;;;;5054770;28;20163;-75
2021/03/16 06:09:44;;;;;;;25.30;4.00;;;8.50;99.90;;;;;;5036818;28;20175;-75
2021/03/16 06:12:10;;;;;;;23.90;4.38;;;8.50;99.90;;;;;;5037182;28;20182;-75
2021/03/16 06:14:37;;;;;;;18.73;4.47;;;8.50;99.90;;;;;;5036516;28;20623;-75
2021/03/16 06:17:05;;;;;;;20.15;4.07;;;8.50;99.90;;;;;;5036790;28;20226;-75
2021/03/16 06:19:33;;;;;;;31.17;4.63;;;8.50;99.90;;;;;;5054441;28;20333;-76
2021/03/16 06:22:08;;;;;;;26.92;4.75;;;8.50;99.90;;;;;;5036154;28;20175;-75
2021/03/16 06:24:45;;;;;;;29.73;4.30;;;8.50;99.90;;;;;;5054081;28;20170;-75
2021/03/16 06:27:24;;;;;;;26.35;4.63;;;8.60;99.90;;;;;;5054497;28;20659;-75
2021/03/16 06:29:50;;;;;;;24.02;4.47;;;8.60;99.90;;;;;;5036385;28;20220;-75
2021/03/16 06:32:17;;;;;;;33.03;5.15;;;8.60;99.90;;;;;;5036057;28;20636;-75
2021/03/16 06:34:43;;;;;;;21.92;4.43;;;8.70;99.90;;;;;;5053942;28;20167;-75
2021/03/16 06:37:09;;;;;;;20.55;4.53;;;8.70;99.90;;;;;;5054182;28;20167;-76
2021/03/16 06:39:42;;;;;;;26.83;4.05;;;8.80;99.90;;;;;;5036019;28;20225;-75
2021/03/16 06:42:22;;;;;;;29.20;4.45;;;8.80;99.90;;;;;;5053942;28;20515;-76
2021/03/16 06:45:01;;;;;;;20.30;4.03;;;8.90;99.90;;;;;;5053637;28;20167;-75
2021/03/16 06:47:26;;;;;;;36.47;5.45;;;8.90;99.90;;;;;;5036375;28;20164;-75
2021/03/16 06:49:52;;;;;;;33.83;4.90;;;8.80;99.90;;;;;;5036275;28;20176;-76
2021/03/16 06:52:19;;;;;;;32.17;4.90;;;8.90;99.90;;;;;;5054015;28;20254;-75
2021/03/16 06:54:45;;;;;;;11.57;3.93;;;8.80;99.90;;;;;;5053617;28;20198;-75
2021/03/16 06:57:12;;;;;;;24.70;4.70;;;8.90;99.90;;;;;;5035897;28;20569;-75
2021/03/16 06:59:38;;;;;;;20.42;5.30;;;8.80;99.90;;;;;;5035329;28;20697;-75
2021/03/16 07:02:15;;;;;;;25.73;5.05;;;8.90;99.90;;;;;;5035747;28;20225;-76
2021/03/16 07:04:44;;;;;;;19.80;4.40;;;8.80;99.90;;;;;;5035564;28;20171;-75
2021/03/16 07:07:11;;;;;;;23.17;4.57;;;8.80;99.90;;;;;;5052798;28;20606;-75
2021/03/16 07:09:37;;;;;;;18.00;4.03;;;8.70;99.90;;;;;;5053542;28;20177;-75
2021/03/16 07:12:04;;;;;;;28.23;4.50;;;8.70;99.90;;;;;;5053587;28;20159;-75
2021/03/16 07:14:31;;;;;;;24.53;4.87;;;8.70;99.90;;;;;;5034749;28;20178;-76
2021/03/16 07:17:00;;;;;;;20.80;4.75;;;8.70;99.90;;;;;;5053437;28;20182;-75
2021/03/16 07:19:29;;;;;;;27.15;4.95;;;8.80;99.90;;;;;;5053393;28;20195;-75
2021/03/16 07:21:56;;;;;;;18.92;4.45;;;8.80;99.90;;;;;;5035463;28;20168;-75
2021/03/16 07:24:23;;;;;;;26.27;4.43;;;8.80;99.90;;;;;;5034801;28;20168;-76
2021/03/16 07:26:49;;;;;;;27.07;5.53;;;8.90;99.90;;;;;;5053643;28;20172;-75
2021/03/16 07:29:17;;;;;;;16.15;4.30;;;8.90;99.90;;;;;;5053346;28;20175;-74
2021/03/16 07:31:43;;;;;;;31.55;5.32;;;8.90;99.90;;;;;;5053762;28;20510;-75
2021/03/16 07:34:11;;;;;;;15.77;3.97;;;8.80;99.90;;;;;;5052917;28;20179;-75
2021/03/16 07:36:39;;;;;;;20.73;3.97;;;8.90;99.90;;;;;;5034962;28;20282;-76
2021/03/16 07:39:10;;;;;;;28.17;3.70;;;8.90;99.90;;;;;;5035307;28;20199;-74
2021/03/16 07:41:37;;;;;;;20.77;3.73;;;9.00;99.90;;;;;;5035364;28;20262;-75
2021/03/16 07:44:08;;;;;;;20.17;4.50;;;9.00;99.90;;;;;;5052609;28;20496;-75
2021/03/16 07:46:44;;;;;;;23.23;3.70;;;9.10;99.90;;;;;;5035289;28;20616;-75
2021/03/16 07:49:13;;;;;;;20.90;3.83;;;9.10;99.90;;;;;;5052819;28;20170;-76
2021/03/16 07:51:44;;;;;;;21.63;4.38;;;9.30;99.90;;;;;;5035551;28;20612;-75
2021/03/16 07:54:10;;;;;;;18.17;4.45;;;9.40;99.90;;;;;;5052904;28;20175;-75
2021/03/16 07:56:38;;;;;;;21.90;5.20;;;9.40;99.90;;;;;;5053024;28;20218;-75
2021/03/16 07:59:05;;;;;;;26.35;4.85;;;9.40;99.90;;;;;;5052670;28;20250;-75
2021/03/16 08:01:31;;;;;;;20.33;4.18;;;9.50;99.90;;;;;;5052832;28;20506;-75
2021/03/16 08:04:10;;;;;;;20.02;3.92;;;9.50;99.90;;;;;;5034594;28;20175;-75
2021/03/16 08:06:36;;;;;;;25.17;4.35;;;9.60;99.90;;;;;;5053046;28;20615;-75
2021/03/16 08:09:17;;;;;;;15.02;4.30;;;9.50;99.90;;;;;;5052858;28;20175;-75
2021/03/16 08:11:43;;;;;;;18.45;4.47;;;9.50;99.90;;;;;;5034965;28;20164;-75
2021/03/16 08:14:09;;;;;;;22.50;4.95;;;9.50;99.90;;;;;;5052391;28;20180;-74
2021/03/16 08:16:36;;;;;;;28.33;4.68;;;9.60;99.90;;;;;;5052507;28;20301;-75
2021/03/16 08:19:13;;;;;;;28.85;4.72;;;9.60;99.90;;;;;;5038737;28;20199;-74
2021/03/16 08:21:41;;;;;;;18.38;4.65;;;9.60;99.90;;;;;;5038800;28;20171;-75
2021/03/16 08:24:15;;;;;;;22.95;4.65;;;9.80;99.90;;;;;;5056476;28;20264;-75
2021/03/16 08:26:52;;;;;;;31.58;4.75;;;9.90;99.90;;;;;;5056243;28;20198;-75
2021/03/16 08:29:28;;;;;;;21.10;4.32;;;9.90;99.90;;;;;;5056733;28;20520;-75
2021/03/16 08:31:56;;;;;;;21.92;3.75;;;10.00;99.90;;;;;;5038883;28;20269;-75
2021/03/16 08:34:23;;;;;;;21.63;4.57;;;9.90;99.90;;;;;;5056308;28;20174;-75
2021/03/16 08:36:49;;;;;;;13.65;4.28;;;9.90;99.90;;;;;;5056369;28;20179;-75
2021/03/16 08:39:24;;;;;;;19.83;4.70;;;10.10;99.90;;;;;;5056318;28;20309;-75
2021/03/16 08:41:56;;;;;;;15.27;3.42;;;10.30;99.90;;;;;;5056945;28;20171;-76
2021/03/16 08:44:22;;;;;;;19.23;3.65;;;10.40;99.90;;;;;;5056035;28;20218;-75
2021/03/16 08:46:48;;;;;;;12.98;3.38;;;10.40;99.90;;;;;;5022016;28;20522;-75
2021/03/16 08:49:22;;;;;;;12.73;3.03;;;10.40;99.90;;;;;;5038432;28;20167;-75
2021/03/16 08:51:48;;;;;;;15.80;3.38;;;10.30;99.90;;;;;;5056382;28;20599;-77
2021/03/16 08:54:25;;;;;;;21.35;3.60;;;10.40;99.90;;;;;;5056407;28;20175;-75
2021/03/16 08:56:51;;;;;;;13.65;4.00;;;10.40;99.90;;;;;;5055844;28;20170;-76
2021/03/16 08:59:21;;;;;;;9.73;3.33;;;10.60;99.90;;;;;;5021759;28;20195;-76
2021/03/16 09:01:51;;;;;;;16.42;3.53;;;10.70;99.90;;;;;;5037971;28;20175;-75
2021/03/16 09:04:18;;;;;;;9.68;3.40;;;11.00;99.90;;;;;;5055432;28;20187;-76
2021/03/16 09:06:44;;;;;;;13.88;3.80;;;11.40;99.90;;;;;;5037967;28;20176;-76
2021/03/16 09:09:11;;;;;;;12.15;5.30;;;11.50;99.90;;;;;;5055001;28;20183;-75
2021/03/16 09:11:43;;;;;;;82.18;38.67;;;11.50;99.90;;;;;;5055261;28;20524;-77
2021/03/16 09:14:17;;;;;;;56.38;31.58;;;11.40;99.90;;;;;;5037633;28;20271;-75
2021/03/16 09:16:45;;;;;;;11.95;3.70;;;11.40;99.90;;;;;;5037294;28;20175;-76
2021/03/16 09:19:14;;;;;;;11.75;2.63;;;11.30;99.90;;;;;;5055436;28;20202;-75
2021/03/16 09:21:58;;;;;;;11.05;2.47;;;11.10;99.90;;;;;;5037913;28;20250;-76
2021/03/16 09:24:31;;;;;;;13.15;3.53;;;11.00;99.90;;;;;;5031396;28;20229;-76
2021/03/16 09:26:59;;;;;;;9.00;4.65;;;10.90;99.90;;;;;;5048570;28;20205;-76
2021/03/16 09:29:31;;;;;;;10.15;3.53;;;10.90;99.90;;;;;;5056252;28;20630;-76
2021/03/16 09:32:10;;;;;;;5.15;1.38;;;10.80;99.90;;;;;;5059263;28;20197;-76
2021/03/16 09:34:39;;;;;;;5.85;2.42;;;10.90;99.90;;;;;;5036501;28;20171;-75
2021/03/16 09:37:07;;;;;;;4.00;2.30;;;11.20;99.90;;;;;;5035787;28;20172;-76
2021/03/16 09:39:33;;;;;;;4.97;2.72;;;11.70;99.90;;;;;;5036602;28;20191;-75
2021/03/16 09:42:00;;;;;;;5.10;3.35;;;12.00;99.90;;;;;;5036848;28;20175;-76
2021/03/16 09:44:38;;;;;;;4.45;3.00;;;12.40;99.90;;;;;;5055100;28;20258;-75
2021/03/16 09:47:06;;;;;;;5.78;2.40;;;12.70;99.90;;;;;;5036549;28;20626;-76
2021/03/16 09:49:39;;;;;;;5.50;2.53;;;12.70;99.90;;;;;;5054678;28;20209;-76
2021/03/16 09:52:08;;;;;;;7.45;1.85;;;12.70;99.90;;;;;;5054866;28;20186;-75
2021/03/16 09:54:43;;;;;;;3.05;1.45;;;12.70;99.90;;;;;;5053790;28;20214;-75
2021/03/16 09:57:11;;;;;;;3.65;1.70;;;12.90;99.90;;;;;;5036077;28;20642;-75
2021/03/16 09:59:39;;;;;;;7.95;2.30;;;13.10;99.90;;;;;;5036929;28;20256;-75
2021/03/16 10:02:05;;;;;;;6.63;2.28;;;13.10;99.90;;;;;;5054759;28;20171;-75
2021/03/16 10:04:51;;;;;;;5.78;2.95;;;13.20;99.90;;;;;;5035964;28;20176;-77
2021/03/16 10:07:27;;;;;;;4.50;2.70;;;12.90;99.90;;;;;;5054597;28;20182;-76
2021/03/16 10:09:53;;;;;;;6.80;2.65;;;12.10;99.90;;;;;;5054402;28;20213;-75
2021/03/16 10:12:22;;;;;;;6.80;2.85;;;11.90;99.90;;;;;;5054002;28;20203;-75
2021/03/16 10:14:50;;;;;;;8.05;4.43;;;11.90;99.90;;;;;;5036288;28;20261;-75
2021/03/16 10:17:27;;;;;;;104.97;53.65;;;11.90;99.90;;;;;;5053585;28;20167;-76
2021/03/16 10:20:02;;;;;;;76.82;39.58;;;11.90;99.90;;;;;;5036455;28;20256;-75
2021/03/16 10:22:33;;;;;;;7.07;3.90;;;11.90;99.90;;;;;;5054487;28;20189;-76
2021/03/16 10:25:01;;;;;;;7.15;2.25;;;11.50;99.90;;;;;;5053807;28;20619;-75
2021/03/16 10:27:32;;;;;;;5.88;1.65;;;11.50;99.90;;;;;;5054238;28;20302;-75
2021/03/16 10:30:07;;;;;;;3.88;1.90;;;11.40;99.90;;;;;;5054391;28;20619;-75
2021/03/16 10:32:33;;;;;;;1.52;1.20;;;11.50;99.90;;;;;;5035057;28;20182;-76
2021/03/16 10:34:58;;;;;;;3.95;1.35;;;11.50;99.90;;;;;;5015099;28;20183;-75
2021/03/16 10:37:25;;;;;;;1.95;1.23;;;11.10;99.90;;;;;;5016642;28;20171;-75
2021/03/16 10:39:54;;;;;;;3.22;1.30;;;11.00;99.90;;;;;;5034128;28;20196;-75
2021/03/16 10:42:20;;;;;;;5.65;1.40;;;10.90;99.90;;;;;;5043678;28;20187;-76
2021/03/16 10:44:46;;;;;;;3.35;1.10;;;11.40;99.90;;;;;;5051755;28;20170;-76
2021/03/16 10:47:13;;;;;;;1.75;1.00;;;12.00;99.90;;;;;;5052097;28;20258;-76
2021/03/16 10:49:40;;;;;;;3.70;1.13;;;12.70;99.90;;;;;;5039809;28;20175;-75
2021/03/16 10:52:06;;;;;;;1.98;1.10;;;13.10;99.90;;;;;;5062193;28;20194;-75
2021/03/16 10:54:34;;;;;;;3.03;1.00;;;13.00;99.90;;;;;;5058874;28;20222;-76
2021/03/16 10:57:00;;;;;;;2.20;1.00;;;12.80;99.90;;;;;;5036053;28;20186;-76
2021/03/16 10:59:26;;;;;;;1.40;1.15;;;12.30;99.90;;;;;;5040698;28;20195;-74
2021/03/16 11:01:51;;;;;;;1.38;0.60;;;11.90;99.90;;;;;;5054676;28;20273;-75
2021/03/16 11:04:18;;;;;;;1.25;0.90;;;11.50;99.90;;;;;;5054446;28;20178;-77
2021/03/16 11:06:45;;;;;;;1.63;0.90;;;11.20;99.90;;;;;;5051790;28;20178;-75
2021/03/16 11:09:14;;;;;;;1.65;0.95;;;11.10;99.90;;;;;;5059389;28;20171;-75
2021/03/16 11:11:41;;;;;;;1.33;0.82;;;11.30;99.90;;;;;;5052184;28;20175;-75
2021/03/16 11:14:07;;;;;;;6.18;0.90;;;11.40;99.90;;;;;;5058605;28;20176;-75
2021/03/16 11:16:33;;;;;;;1.73;0.98;;;11.20;99.90;;;;;;5029285;28;20198;-75
2021/03/16 11:18:58;;;;;;;0.90;0.80;;;11.00;99.90;;;;;;5031806;28;20234;-76
2021/03/16 11:21:24;;;;;;;2.03;0.93;;;10.80;99.90;;;;;;5063852;28;20171;-76
2021/03/16 11:23:51;;;;;;;2.92;0.80;;;10.80;99.90;;;;;;5042278;28;20163;-75
2021/03/16 11:26:16;;;;;;;2.13;0.90;;;10.60;99.90;;;;;;5059267;28;20228;-75
2021/03/16 11:28:42;;;;;;;1.00;0.90;;;10.50;99.90;;;;;;5034933;28;20203;-75
2021/03/16 11:31:07;;;;;;;2.67;1.10;;;10.50;99.90;;;;;;5054470;28;20178;-77
2021/03/16 11:33:33;;;;;;;1.90;1.10;;;10.50;99.90;;;;;;5050963;28;20183;-75
2021/03/16 11:35:59;;;;;;;2.60;1.45;;;10.60;99.90;;;;;;5059923;28;20266;-75
2021/03/16 11:38:24;;;;;;;1.60;1.45;;;10.60;99.90;;;;;;5038126;28;20207;-77
2021/03/16 11:40:52;;;;;;;2.10;1.15;;;10.70;99.90;;;;;;5034105;28;20171;-76
2021/03/16 11:43:18;;;;;;;2.15;1.13;;;10.70;99.90;;;;;;5066925;28;20178;-75
2021/03/16 11:45:44;;;;;;;4.72;1.35;;;10.60;99.90;;;;;;5038801;28;20204;-75
2021/03/16 11:48:10;;;;;;;2.28;1.27;;;10.60;99.90;;;;;;5071692;28;20175;-75
2021/03/16 11:50:36;;;;;;;2.22;1.20;;;10.50;99.90;;;;;;5058640;28;20494;-75
2021/03/16 11:53:06;;;;;;;2.90;1.30;;;10.50;99.90;;;;;;5034276;28;20175;-76
2021/03/16 11:55:34;;;;;;;2.15;1.15;;;10.40;99.90;;;;;;5052536;28;20175;-76
2021/03/16 11:58:00;;;;;;;2.80;1.40;;;10.20;99.90;;;;;;5053135;28;20248;-75
2021/03/16 12:00:26;;;;;;;5.75;1.27;;;10.20;99.90;;;;;;5052756;28;20521;-76
2021/03/16 12:02:53;;;;;;;2.42;1.20;;;10.20;99.90;;;;;;5058991;28;20175;-75
2021/03/16 12:05:18;;;;;;;2.75;1.38;;;10.10;99.90;;;;;;5041408;28;20661;-75
2021/03/16 12:07:44;;;;;;;2.10;1.45;;;10.00;99.90;;;;;;5035169;28;20258;-75
2021/03/16 12:10:10;;;;;;;3.83;1.65;;;9.80;99.90;;;;;;5055245;28;20649;-75
2021/03/16 12:12:37;;;;;;;2.22;1.50;;;9.70;99.90;;;;;;5064702;28;20167;-74
2021/03/16 12:15:08;;;;;;;2.00;1.55;;;9.70;99.90;;;;;;5057688;28;20744;-76
2021/03/16 12:17:33;;;;;;;3.53;2.08;;;9.70;99.90;;;;;;5035651;28;20320;-75
2021/03/16 12:20:02;;;;;;;3.55;1.67;;;9.90;99.90;;;;;;5052322;28;20254;-77
2021/03/16 12:22:27;;;;;;;1.65;1.55;;;9.90;99.90;;;;;;5041387;28;20179;-77
2021/03/16 12:24:53;;;;;;;4.60;1.90;;;9.90;99.90;;;;;;5034910;28;20262;-75
2021/03/16 12:27:19;;;;;;;2.30;1.67;;;9.70;99.90;;;;;;5063246;28;20535;-75
2021/03/16 12:29:45;;;;;;;2.53;1.90;;;9.70;99.90;;;;;;5047413;28;20179;-75
2021/03/16 12:32:11;;;;;;;3.08;1.98;;;9.90;99.90;;;;;;5033911;28;20282;-75
2021/03/16 12:34:37;;;;;;;4.03;1.85;;;10.10;99.90;;;;;;5033253;28;20263;-75
2021/03/16 12:37:03;;;;;;;3.45;1.90;;;10.30;99.90;;;;;;5070204;28;20522;-77
2021/03/16 12:39:29;;;;;;;4.75;2.25;;;10.40;99.90;;;;;;5035615;28;20210;-75
2021/03/16 12:41:55;;;;;;;2.80;2.20;;;10.40;99.90;;;;;;5034442;28;20533;-75
2021/03/16 12:44:20;;;;;;;2.60;2.05;;;10.30;99.90;;;;;;5025143;28;20609;-75
2021/03/16 12:46:46;;;;;;;4.68;1.85;;;10.30;99.90;;;;;;5052301;28;20209;-77
2021/03/16 12:49:12;;;;;;;2.58;2.10;;;10.30;99.90;;;;;;5052329;28;20179;-75